Time;durP1;ratioP1;P1;durP2;ratioP2;P2;SDS_P1;SDS_P2;PMS_P1;PMS_P2;Temp;Humidity;BMP_temperature;BMP_pressure;BME280_temperature;BME280_humidity;BME280_pressure;Samples;Min_cycle;Max_cycle;Signal;HPM_P1;HPM_P2
2023/07/06 00:01:57;;;;;;;4.27;2.40;;;16.00;69.20;;;;;;5074894;28;20834;-81
2023/07/06 00:04:23;;;;;;;4.30;2.27;;;16.00;59.70;;;;;;5069189;28;20488;-81
2023/07/06 00:06:51;;;;;;;3.20;2.00;;;15.90;75.20;;;;;;5056811;28;20542;-81
2023/07/06 00:09:18;;;;;;;4.80;2.37;;;15.90;55.70;;;;;;5057168;28;20529;-81
2023/07/06 00:11:47;;;;;;;6.40;2.80;;;15.80;68.20;;;;;;5056385;28;20491;-81
2023/07/06 00:14:15;;;;;;;3.43;1.93;;;15.80;77.60;;;;;;5057927;28;20920;-81
2023/07/06 00:16:45;;;;;;;8.17;2.97;;;15.80;43.90;;;;;;5072175;28;20469;-80
2023/07/06 00:19:18;;;;;;;3.67;2.17;;;15.60;11.50;;;;;;5056712;28;20467;-80
2023/07/06 00:21:45;;;;;;;3.20;2.00;;;15.60;17.10;;;;;;5073198;28;20455;-80
2023/07/06 00:24:11;;;;;;;4.07;2.37;;;15.60;42.90;;;;;;5061931;28;20460;-80
2023/07/06 00:26:38;;;;;;;4.93;2.30;;;15.60;21.40;;;;;;5075121;28;20447;-80
2023/07/06 00:29:05;;;;;;;3.60;2.23;;;15.70;27.30;;;;;;5076549;28;20549;-80
2023/07/06 00:31:40;;;;;;;3.03;1.80;;;15.60;31.40;;;;;;5077034;28;20485;-80
2023/07/06 00:34:08;;;;;;;4.03;2.33;;;15.50;19.80;;;;;;5074278;28;20504;-80
2023/07/06 00:36:37;;;;;;;4.73;2.17;;;15.60;55.30;;;;;;5075951;28;20497;-80
2023/07/06 00:39:04;;;;;;;4.60;2.10;;;15.50;42.70;;;;;;5076080;28;20489;-81
2023/07/06 00:41:32;;;;;;;3.63;1.83;;;15.60;49.00;;;;;;5075604;28;20457;-81
2023/07/06 00:44:00;;;;;;;5.27;2.40;;;15.50;65.90;;;;;;5062275;28;20537;-81
2023/07/06 00:46:33;;;;;;;4.13;2.23;;;15.50;81.10;;;;;;5055575;28;20447;-81
2023/07/06 00:49:03;;;;;;;6.00;2.17;;;15.50;62.70;;;;;;5056803;28;20479;-81
2023/07/06 00:51:33;;;;;;;4.37;2.70;;;15.50;72.10;;;;;;5055933;28;20490;-81
2023/07/06 00:54:06;;;;;;;3.33;2.30;;;15.40;79.60;;;;;;5069234;28;20451;-81
2023/07/06 00:56:38;;;;;;;3.77;1.90;;;15.40;92.50;;;;;;5072107;28;20865;-82
2023/07/06 00:59:07;;;;;;;3.80;2.00;;;15.40;84.20;;;;;;5078314;28;21013;-82
2023/07/06 01:01:36;;;;;;;3.80;2.10;;;15.40;88.80;;;;;;5080030;28;20499;-82
2023/07/06 01:04:06;;;;;;;5.00;2.00;;;15.30;93.60;;;;;;5065379;28;20448;-79
2023/07/06 01:06:37;;;;;;;4.00;2.50;;;15.40;99.50;;;;;;5062588;28;20465;-82
2023/07/06 01:09:05;;;;;;;3.87;2.50;;;15.20;99.00;;;;;;5078065;28;20475;-82
2023/07/06 01:11:32;;;;;;;3.97;2.53;;;15.30;99.90;;;;;;5079808;28;20494;-82
2023/07/06 01:14:00;;;;;;;4.10;2.20;;;15.20;96.80;;;;;;5078748;28;20454;-82
2023/07/06 01:16:33;;;;;;;3.23;2.57;;;15.10;96.10;;;;;;5074845;28;20487;-82
2023/07/06 01:19:14;;;;;;;3.73;2.40;;;15.10;99.90;;;;;;5058866;28;20829;-82
2023/07/06 01:21:49;;;;;;;4.70;2.90;;;15.10;99.90;;;;;;5059646;28;20509;-82
2023/07/06 01:24:47;;;;;;;2.67;1.93;;;15.10;99.90;;;;;;5073783;28;20445;-82
2023/07/06 01:27:41;;;;;;;3.90;2.40;;;15.10;99.90;;;;;;5068712;28;20480;-82
2023/07/06 01:30:36;;;;;;;2.80;1.93;;;15.00;99.90;;;;;;5061812;28;20556;-84
2023/07/06 01:33:10;;;;;;;5.37;2.40;;;15.10;99.90;;;;;;5063854;28;20447;-83
2023/07/06 01:35:45;;;;;;;3.77;2.80;;;15.10;99.90;;;;;;5058713;28;20448;-85
2023/07/06 01:38:12;;;;;;;4.43;2.87;;;15.10;99.90;;;;;;5072583;28;20466;-82
2023/07/06 01:40:40;;;;;;;5.60;2.30;;;15.00;99.90;;;;;;5079288;28;20824;-82
2023/07/06 01:43:07;;;;;;;9.57;2.77;;;15.10;99.90;;;;;;5078645;28;20544;-82
2023/07/06 01:45:35;;;;;;;3.90;2.93;;;15.00;99.90;;;;;;5079270;28;20455;-83
2023/07/06 01:48:07;;;;;;;3.60;2.70;;;15.00;99.90;;;;;;5062840;28;20457;-82
2023/07/06 01:50:44;;;;;;;3.80;2.40;;;15.00;99.90;;;;;;5059161;28;20446;-82
2023/07/06 01:53:18;;;;;;;3.80;2.47;;;14.90;99.90;;;;;;5059217;28;20825;-82
2023/07/06 01:55:53;;;;;;;4.70;2.40;;;14.90;99.90;;;;;;5058610;28;20818;-82
2023/07/06 01:58:25;;;;;;;6.40;3.20;;;14.90;99.90;;;;;;5076521;28;20489;-82
2023/07/06 02:00:56;;;;;;;4.40;2.93;;;14.90;99.90;;;;;;5077720;28;20437;-81
2023/07/06 02:03:26;;;;;;;7.33;3.30;;;14.80;99.90;;;;;;5070425;28;20447;-81
2023/07/06 02:05:54;;;;;;;4.37;2.43;;;14.80;99.90;;;;;;5055881;28;20489;-81
2023/07/06 02:08:23;;;;;;;6.60;3.27;;;14.80;99.90;;;;;;5073923;28;21010;-79
2023/07/06 02:10:50;;;;;;;3.87;2.70;;;14.80;99.90;;;;;;5075347;28;20582;-79
2023/07/06 02:13:17;;;;;;;3.37;2.70;;;14.80;99.90;;;;;;5071785;28;20451;-79
2023/07/06 02:15:45;;;;;;;3.87;2.80;;;14.80;99.90;;;;;;5056276;28;20500;-80
2023/07/06 02:18:12;;;;;;;3.10;2.33;;;14.80;99.90;;;;;;5056145;28;20995;-79
2023/07/06 02:20:40;;;;;;;8.90;2.50;;;14.80;99.90;;;;;;5056927;28;20526;-82
2023/07/06 02:23:08;;;;;;;3.80;2.50;;;14.80;99.90;;;;;;5058281;28;20489;-79
2023/07/06 02:25:34;;;;;;;3.80;2.70;;;14.70;99.90;;;;;;5075621;28;20487;-81
2023/07/06 02:28:03;;;;;;;6.03;2.57;;;14.70;99.90;;;;;;5057866;28;20487;-80
2023/07/06 02:30:29;;;;;;;2.97;2.47;;;14.70;99.90;;;;;;5055776;28;20483;-81
2023/07/06 02:32:56;;;;;;;3.33;2.67;;;14.80;99.90;;;;;;5056946;28;20467;-80
2023/07/06 02:35:23;;;;;;;5.00;2.93;;;14.70;99.90;;;;;;5076936;28;20534;-81
2023/07/06 02:37:52;;;;;;;3.60;2.50;;;14.70;99.90;;;;;;5071202;28;20459;-81
2023/07/06 02:40:19;;;;;;;4.37;2.13;;;14.70;99.90;;;;;;5056199;28;20457;-80
2023/07/06 02:42:48;;;;;;;3.13;2.70;;;14.70;99.90;;;;;;5056757;28;20447;-80
2023/07/06 02:45:17;;;;;;;3.67;2.60;;;14.60;99.90;;;;;;5059836;28;20823;-80
2023/07/06 02:47:44;;;;;;;4.30;2.77;;;14.70;99.90;;;;;;5074945;28;20458;-80
2023/07/06 02:50:12;;;;;;;4.97;2.80;;;14.70;99.90;;;;;;5075109;28;21151;-81
2023/07/06 02:52:39;;;;;;;6.20;3.20;;;14.70;99.90;;;;;;5075274;28;20782;-80
2023/07/06 02:55:09;;;;;;;4.80;2.83;;;14.60;99.90;;;;;;5073328;28;20542;-78
2023/07/06 02:57:39;;;;;;;5.40;3.00;;;14.60;99.90;;;;;;5060834;28;20496;-81
2023/07/06 03:00:10;;;;;;;4.03;2.63;;;14.60;99.90;;;;;;5054727;28;20489;-81
2023/07/06 03:02:37;;;;;;;4.27;2.73;;;14.60;99.90;;;;;;5064717;28;20955;-81
2023/07/06 03:05:05;;;;;;;4.30;3.00;;;14.50;99.90;;;;;;5058570;28;20495;-81
2023/07/06 03:07:34;;;;;;;4.10;2.97;;;14.60;99.90;;;;;;5066523;28;20455;-81
2023/07/06 03:10:01;;;;;;;6.70;2.77;;;14.60;99.90;;;;;;5074063;28;20471;-81
2023/07/06 03:12:33;;;;;;;4.93;3.40;;;14.50;99.90;;;;;;5073877;28;21055;-80
2023/07/06 03:15:00;;;;;;;4.80;3.20;;;14.50;99.90;;;;;;5057091;28;20461;-81
2023/07/06 03:17:27;;;;;;;6.40;3.13;;;14.60;99.90;;;;;;5064694;28;20454;-80
2023/07/06 03:19:54;;;;;;;4.70;2.80;;;14.50;99.90;;;;;;5074574;28;20563;-80
2023/07/06 03:22:20;;;;;;;9.57;3.50;;;14.50;99.90;;;;;;5064885;28;20443;-80
2023/07/06 03:24:47;;;;;;;5.17;3.30;;;14.60;99.90;;;;;;5053605;28;20463;-81
2023/07/06 03:27:14;;;;;;;8.07;3.30;;;14.60;99.90;;;;;;5054903;28;20475;-81
2023/07/06 03:29:43;;;;;;;6.53;2.87;;;14.50;99.90;;;;;;5065026;28;20526;-81
2023/07/06 03:32:11;;;;;;;7.10;2.90;;;14.50;99.90;;;;;;5074720;28;20506;-82
2023/07/06 03:34:37;;;;;;;4.40;2.60;;;14.50;99.90;;;;;;5074245;28;20453;-82
2023/07/06 03:37:05;;;;;;;6.63;3.33;;;14.60;99.90;;;;;;5073701;28;20441;-81
2023/07/06 03:39:33;;;;;;;6.03;3.10;;;14.60;99.90;;;;;;5071730;28;20462;-81
2023/07/06 03:42:01;;;;;;;5.67;2.93;;;14.50;99.90;;;;;;5065670;28;20452;-81
2023/07/06 03:44:28;;;;;;;4.03;2.90;;;14.50;99.90;;;;;;5080517;28;20508;-81
2023/07/06 03:46:58;;;;;;;6.00;4.83;;;14.60;99.90;;;;;;5077405;28;20824;-81
2023/07/06 03:49:25;;;;;;;4.83;2.90;;;14.50;99.90;;;;;;5078682;28;20499;-81
2023/07/06 03:51:51;;;;;;;5.67;3.00;;;14.60;99.90;;;;;;5077112;28;20485;-81
2023/07/06 03:54:18;;;;;;;4.40;2.87;;;14.60;99.90;;;;;;5071738;28;20444;-81
2023/07/06 03:56:45;;;;;;;5.13;2.50;;;14.60;99.90;;;;;;5067134;28;20888;-81
2023/07/06 03:59:12;;;;;;;3.80;2.93;;;14.60;99.90;;;;;;5077583;28;20494;-80
2023/07/06 04:01:38;;;;;;;4.60;2.40;;;14.50;99.90;;;;;;5073631;28;20447;-81
2023/07/06 04:04:08;;;;;;;4.40;2.80;;;14.50;99.90;;;;;;5073703;28;20532;-81
2023/07/06 04:06:40;;;;;;;4.20;2.80;;;14.50;99.90;;;;;;5075945;28;20454;-81
2023/07/06 04:09:09;;;;;;;5.60;3.00;;;14.60;99.90;;;;;;5078781;28;20462;-81
2023/07/06 04:11:36;;;;;;;3.93;3.47;;;14.60;99.90;;;;;;5078076;28;20519;-81
2023/07/06 04:14:04;;;;;;;4.00;2.63;;;14.60;99.90;;;;;;5070680;28;20455;-81
2023/07/06 04:16:31;;;;;;;4.50;2.40;;;14.60;99.90;;;;;;5064527;28;20523;-82
2023/07/06 04:18:58;;;;;;;4.23;2.53;;;14.70;99.90;;;;;;5076360;28;20479;-82
2023/07/06 04:21:26;;;;;;;7.60;2.50;;;14.60;99.90;;;;;;5074599;28;20450;-81
2023/07/06 04:23:53;;;;;;;4.30;2.27;;;14.70;99.90;;;;;;5073863;28;20483;-81
2023/07/06 04:26:21;;;;;;;5.97;2.77;;;14.70;95.90;;;;;;5076381;28;20831;-82
2023/07/06 04:28:49;;;;;;;5.07;2.50;;;14.70;86.90;;;;;;5077620;28;20471;-83
2023/07/06 04:31:16;;;;;;;5.77;2.60;;;14.80;91.60;;;;;;5071783;28;20460;-84
2023/07/06 04:33:45;;;;;;;6.27;2.37;;;14.80;78.60;;;;;;5064926;28;20495;-83
2023/07/06 04:36:12;;;;;;;5.13;2.90;;;14.80;36.10;;;;;;5081263;28;20451;-83
2023/07/06 04:38:41;;;;;;;7.37;2.87;;;14.90;16.90;;;;;;5082794;28;21101;-83
2023/07/06 04:41:09;;;;;;;6.07;2.97;;;15.00;1.00;;;;;;5080267;28;20454;-84
2023/07/06 04:43:36;;;;;;;6.00;2.80;;;15.00;1.00;;;;;;5064023;28;20461;-83
2023/07/06 04:46:03;;;;;;;6.67;2.60;;;15.10;1.00;;;;;;5082133;28;20457;-83
2023/07/06 04:48:32;;;;;;;7.70;2.60;;;15.10;1.00;;;;;;5082352;28;20479;-83
2023/07/06 04:50:59;;;;;;;3.97;2.30;;;15.20;1.00;;;;;;5079677;28;20459;-83
2023/07/06 04:53:26;;;;;;;4.50;2.10;;;15.20;1.00;;;;;;5062453;28;20533;-84
2023/07/06 04:55:56;;;;;;;4.60;2.63;;;15.20;1.00;;;;;;5081712;28;20457;-83
2023/07/06 04:58:23;;;;;;;5.67;2.40;;;15.20;1.00;;;;;;5081854;28;20478;-84
2023/07/06 05:00:51;;;;;;;4.10;2.70;;;15.20;1.00;;;;;;5081901;28;20457;-82
2023/07/06 05:03:18;;;;;;;7.33;2.40;;;15.20;99.90;;;;;;5060982;28;20454;-82
2023/07/06 05:05:46;;;;;;;4.90;2.40;;;15.20;99.90;;;;;;5060414;28;20543;-82
2023/07/06 05:08:16;;;;;;;4.50;2.40;;;15.30;99.90;;;;;;5061785;28;20537;-81
2023/07/06 05:10:46;;;;;;;4.93;2.10;;;15.40;99.90;;;;;;5062139;28;20821;-82
2023/07/06 05:13:15;;;;;;;7.10;2.50;;;15.40;1.00;;;;;;5060683;28;20519;-82
2023/07/06 05:15:42;;;;;;;3.67;2.67;;;15.40;99.90;;;;;;5059989;28;20952;-82
2023/07/06 05:18:09;;;;;;;4.80;2.30;;;15.50;99.90;;;;;;5061401;28;21154;-82
2023/07/06 05:20:36;;;;;;;6.63;2.70;;;15.40;99.90;;;;;;5061569;28;21026;-82
2023/07/06 05:23:05;;;;;;;6.90;2.93;;;15.50;99.90;;;;;;5061105;28;20450;-83
2023/07/06 05:25:33;;;;;;;5.20;2.60;;;15.50;99.90;;;;;;5078457;28;20464;-82
2023/07/06 05:27:59;;;;;;;7.27;2.43;;;15.50;99.90;;;;;;5079931;28;20982;-82
2023/07/06 05:30:28;;;;;;;3.90;1.80;;;15.60;99.90;;;;;;5088254;28;20525;-82
2023/07/06 05:32:57;;;;;;;4.93;2.13;;;15.70;99.90;;;;;;5094646;28;20542;-81
2023/07/06 05:35:27;;;;;;;2.83;1.93;;;15.70;99.90;;;;;;5094201;28;20469;-82
2023/07/06 05:37:55;;;;;;;6.40;2.40;;;15.70;99.90;;;;;;5084472;28;20467;-82
2023/07/06 05:40:22;;;;;;;5.57;2.20;;;15.80;99.90;;;;;;5074239;28;20482;-82
2023/07/06 05:42:49;;;;;;;4.33;2.37;;;15.80;99.90;;;;;;5065395;28;20447;-82
2023/07/06 05:45:16;;;;;;;5.07;2.70;;;15.90;99.90;;;;;;5058916;28;20468;-82
2023/07/06 05:47:45;;;;;;;7.40;2.90;;;15.90;99.90;;;;;;5068182;28;20510;-82
2023/07/06 05:50:12;;;;;;;6.30;2.23;;;16.00;14.30;;;;;;5080591;28;20477;-83
2023/07/06 05:52:39;;;;;;;6.63;1.90;;;16.00;80.70;;;;;;5082662;28;20866;-84
2023/07/06 05:55:07;;;;;;;4.37;2.47;;;16.00;1.00;;;;;;5087906;28;20912;-84
2023/07/06 05:57:34;;;;;;;5.47;2.30;;;16.00;1.00;;;;;;5087938;28;20528;-83
2023/07/06 06:00:05;;;;;;;6.43;2.60;;;16.10;1.00;;;;;;5109983;22;20583;-82
2023/07/06 06:02:32;;;;;;;4.80;2.30;;;16.10;1.00;;;;;;5093111;28;20949;-81
2023/07/06 06:05:02;;;;;;;6.90;2.40;;;16.20;99.90;;;;;;5089174;28;20545;-81
2023/07/06 06:07:31;;;;;;;8.47;2.83;;;16.20;1.00;;;;;;5080795;28;20475;-81
2023/07/06 06:09:58;;;;;;;4.97;2.50;;;16.30;1.00;;;;;;5081444;28;20471;-81
2023/07/06 06:12:27;;;;;;;6.30;2.13;;;16.20;99.90;;;;;;5081033;28;21088;-82
2023/07/06 06:14:54;;;;;;;7.10;2.40;;;16.20;99.90;;;;;;5080922;28;20510;-82
2023/07/06 06:17:21;;;;;;;5.23;2.47;;;16.30;99.90;;;;;;5101271;28;20462;-82
2023/07/06 06:19:48;;;;;;;7.70;3.00;;;16.30;1.00;;;;;;5101121;28;20553;-80
2023/07/06 06:22:19;;;;;;;6.43;2.37;;;16.30;1.00;;;;;;5101588;28;20520;-82
2023/07/06 06:24:45;;;;;;;7.33;2.23;;;16.40;1.00;;;;;;5081839;28;20505;-83
2023/07/06 06:27:15;;;;;;;6.80;2.47;;;16.50;30.10;;;;;;5061721;28;20453;-81
2023/07/06 06:29:43;;;;;;;5.93;2.63;;;16.50;99.90;;;;;;5060605;28;20502;-83
2023/07/06 06:32:10;;;;;;;5.93;3.07;;;16.60;1.00;;;;;;5060359;28;20490;-82
2023/07/06 06:34:38;;;;;;;4.63;1.73;;;16.70;1.00;;;;;;5060906;28;20464;-83
2023/07/06 06:37:06;;;;;;;4.77;2.47;;;16.80;1.00;;;;;;5059896;28;20450;-82
2023/07/06 06:39:34;;;;;;;7.73;2.90;;;16.90;1.00;;;;;;5060083;28;20476;-83
2023/07/06 06:42:02;;;;;;;6.20;2.80;;;16.80;99.90;;;;;;5059758;28;20554;-81
2023/07/06 06:44:30;;;;;;;7.40;2.40;;;16.90;99.90;;;;;;5064294;28;20465;-82
2023/07/06 06:46:58;;;;;;;6.37;2.63;;;16.80;99.90;;;;;;5078146;28;20455;-81
2023/07/06 06:49:26;;;;;;;5.03;2.50;;;16.80;99.90;;;;;;5068341;28;20578;-82
2023/07/06 06:51:52;;;;;;;5.43;2.83;;;16.80;99.90;;;;;;5064828;28;20450;-82
2023/07/06 06:54:20;;;;;;;7.37;2.90;;;16.80;1.00;;;;;;5066467;28;20556;-83
2023/07/06 06:56:49;;;;;;;7.33;3.33;;;16.90;99.90;;;;;;5072444;28;20448;-81
2023/07/06 06:59:16;;;;;;;8.00;2.97;;;16.90;1.00;;;;;;5059140;28;20551;-80
2023/07/06 07:01:43;;;;;;;6.27;2.70;;;17.00;99.90;;;;;;5065009;28;20500;-81
2023/07/06 07:04:10;;;;;;;7.80;2.90;;;16.80;99.90;;;;;;5073888;28;20450;-80
2023/07/06 07:06:38;;;;;;;6.33;3.13;;;16.90;1.00;;;;;;5068724;28;20565;-80
2023/07/06 07:09:09;;;;;;;6.90;3.20;;;16.90;99.90;;;;;;5070523;28;20495;-80
2023/07/06 07:11:36;;;;;;;9.43;3.03;;;17.00;99.90;;;;;;5056467;28;20459;-80
2023/07/06 07:14:07;;;;;;;6.60;2.93;;;17.00;99.90;;;;;;5075945;28;20495;-78
2023/07/06 07:16:35;;;;;;;6.07;2.63;;;17.20;1.00;;;;;;5073267;28;20451;-81
2023/07/06 07:19:01;;;;;;;7.37;2.90;;;17.20;1.00;;;;;;5076590;28;20477;-80
2023/07/06 07:21:28;;;;;;;8.33;2.10;;;17.20;1.00;;;;;;5071955;28;20488;-79
2023/07/06 07:23:55;;;;;;;3.83;2.00;;;17.30;1.00;;;;;;5069215;28;21042;-79
2023/07/06 07:26:24;;;;;;;3.73;2.30;;;17.40;1.00;;;;;;5068759;28;20518;-81
2023/07/06 07:28:52;;;;;;;11.90;2.83;;;17.50;99.90;;;;;;5076657;28;20476;-78
2023/07/06 07:31:21;;;;;;;4.70;2.40;;;17.50;32.90;;;;;;5076042;28;20449;-80
2023/07/06 07:33:49;;;;;;;9.43;2.53;;;17.50;99.90;;;;;;5067782;28;20483;-81
2023/07/06 07:36:20;;;;;;;5.90;2.23;;;17.60;99.90;;;;;;5065683;28;20459;-77
2023/07/06 07:38:48;;;;;;;8.20;3.30;;;17.70;99.90;;;;;;5076458;28;20788;-81
2023/07/06 07:41:18;;;;;;;10.70;2.63;;;17.70;99.90;;;;;;5069231;28;20455;-77
2023/07/06 07:43:46;;;;;;;6.73;3.00;;;17.80;1.00;;;;;;5064480;28;20457;-80
2023/07/06 07:46:15;;;;;;;10.40;3.03;;;17.90;99.90;;;;;;5062029;28;20462;-80
2023/07/06 07:48:45;;;;;;;6.50;2.30;;;17.90;1.00;;;;;;5076967;28;20719;-79
2023/07/06 07:51:14;;;;;;;7.47;2.30;;;18.00;1.00;;;;;;5075943;28;20476;-80
2023/07/06 07:53:44;;;;;;;5.50;1.90;;;18.00;99.90;;;;;;5074466;28;20525;-82
2023/07/06 07:56:12;;;;;;;7.87;2.70;;;18.00;99.90;;;;;;5074634;28;20496;-80
2023/07/06 07:58:40;;;;;;;7.80;2.30;;;18.00;99.90;;;;;;5056945;28;20470;-79
2023/07/06 08:01:09;;;;;;;3.50;2.03;;;18.00;99.90;;;;;;5056222;28;20451;-79
2023/07/06 08:03:37;;;;;;;5.37;2.67;;;18.10;99.90;;;;;;5057591;28;20480;-80
2023/07/06 08:06:08;;;;;;;9.90;3.00;;;18.30;1.00;;;;;;5075345;28;20454;-80
2023/07/06 08:08:36;;;;;;;9.10;2.40;;;18.40;1.00;;;;;;5069929;28;20455;-80
2023/07/06 08:11:06;;;;;;;4.30;2.30;;;18.40;99.90;;;;;;5071275;28;20474;-80
2023/07/06 08:13:33;;;;;;;8.70;2.43;;;18.50;1.00;;;;;;5073060;28;20471;-79
2023/07/06 08:16:00;;;;;;;4.47;1.80;;;18.60;96.10;;;;;;5075702;28;20821;-79
2023/07/06 08:18:28;;;;;;;4.47;2.07;;;18.70;99.90;;;;;;5075755;28;20451;-79
2023/07/06 08:20:56;;;;;;;6.40;2.30;;;18.80;99.90;;;;;;5074960;28;20482;-78
2023/07/06 08:23:25;;;;;;;5.03;2.37;;;18.90;59.40;;;;;;5076647;28;20527;-79
2023/07/06 08:25:52;;;;;;;5.70;2.17;;;19.10;99.90;;;;;;5075584;28;20985;-79
2023/07/06 08:28:21;;;;;;;8.27;2.20;;;19.30;56.80;;;;;;5072984;28;20537;-80
2023/07/06 08:30:49;;;;;;;7.37;2.67;;;19.40;99.90;;;;;;5078053;28;20478;-78
2023/07/06 08:33:16;;;;;;;8.57;2.47;;;19.40;99.90;;;;;;5071974;28;20556;-80
2023/07/06 08:35:44;;;;;;;5.97;2.80;;;19.50;99.90;;;;;;5062468;28;20950;-80
2023/07/06 08:38:11;;;;;;;7.53;3.50;;;19.50;26.00;;;;;;5070186;28;20489;-80
2023/07/06 08:40:41;;;;;;;5.77;2.43;;;19.60;99.90;;;;;;5071147;28;20561;-80
2023/07/06 08:43:15;;;;;;;5.33;2.13;;;19.70;64.30;;;;;;5071786;28;20431;-81
2023/07/06 08:45:46;;;;;;;4.43;1.93;;;19.90;42.90;;;;;;5067209;28;20459;-80
2023/07/06 08:48:16;;;;;;;5.10;2.00;;;19.90;1.00;;;;;;5073129;28;20518;-80
2023/07/06 08:50:48;;;;;;;4.03;1.60;;;20.00;1.00;;;;;;5080394;28;20473;-79
2023/07/06 08:53:16;;;;;;;4.77;2.20;;;20.20;1.00;;;;;;5078945;28;20481;-79
2023/07/06 08:55:45;;;;;;;4.63;2.03;;;20.40;3.50;;;;;;5076941;28;20462;-78
2023/07/06 08:58:18;;;;;;;6.33;1.90;;;20.60;1.00;;;;;;5071689;28;20455;-82
2023/07/06 09:00:46;;;;;;;4.63;1.60;;;20.80;1.00;;;;;;5079279;28;20865;-79
2023/07/06 09:03:14;;;;;;;10.37;2.17;;;20.80;1.00;;;;;;5080142;28;20447;-80
2023/07/06 09:05:46;;;;;;;4.77;1.80;;;20.80;1.00;;;;;;5082240;28;20891;-80
2023/07/06 09:08:18;;;;;;;6.50;2.07;;;20.70;1.00;;;;;;5081291;28;21030;-79
2023/07/06 09:10:47;;;;;;;3.50;1.70;;;20.80;1.00;;;;;;5084941;28;20472;-80
2023/07/06 09:13:22;;;;;;;4.60;1.80;;;21.10;1.00;;;;;;5088423;28;20474;-80
2023/07/06 09:15:54;;;;;;;6.83;2.00;;;21.30;1.00;;;;;;5083377;28;20791;-80
2023/07/06 09:18:21;;;;;;;6.77;2.40;;;21.40;99.90;;;;;;5080665;28;20447;-80
2023/07/06 09:20:49;;;;;;;5.07;1.93;;;21.70;99.90;;;;;;5085575;28;20477;-79
2023/07/06 09:23:17;;;;;;;6.13;2.73;;;21.90;99.90;;;;;;5090647;28;20492;-79
2023/07/06 09:25:47;;;;;;;2.80;1.70;;;21.90;99.90;;;;;;5087890;28;20450;-80
2023/07/06 09:28:17;;;;;;;6.30;1.63;;;21.80;99.90;;;;;;5075175;28;20451;-82
2023/07/06 09:30:48;;;;;;;5.37;1.77;;;21.50;99.90;;;;;;5062792;28;20471;-81
2023/07/06 09:33:18;;;;;;;5.90;2.13;;;21.50;99.90;;;;;;5070403;28;20528;-81
2023/07/06 09:35:46;;;;;;;3.67;1.63;;;21.60;99.90;;;;;;5080286;28;20462;-80
2023/07/06 09:38:15;;;;;;;4.50;1.67;;;21.70;99.90;;;;;;5065968;28;20464;-78
2023/07/06 09:40:43;;;;;;;5.13;2.30;;;21.80;99.90;;;;;;5058665;28;20468;-80
2023/07/06 09:43:20;;;;;;;3.27;1.53;;;22.00;99.90;;;;;;5060027;28;20454;-82
2023/07/06 09:45:49;;;;;;;4.37;1.60;;;22.30;99.90;;;;;;5059592;28;20503;-81
2023/07/06 09:48:27;;;;;;;6.30;1.70;;;22.40;99.90;;;;;;5060707;28;20491;-79
2023/07/06 09:50:59;;;;;;;4.93;1.57;;;22.70;99.90;;;;;;5059363;28;20473;-80
2023/07/06 09:53:32;;;;;;;4.37;1.60;;;22.90;99.90;;;;;;5076717;28;20538;-82
2023/07/06 09:55:59;;;;;;;4.17;1.53;;;23.20;99.90;;;;;;5079711;28;20515;-80
2023/07/06 09:58:30;;;;;;;3.73;1.50;;;23.40;99.90;;;;;;5079480;28;20891;-79
2023/07/06 10:01:04;;;;;;;4.50;1.60;;;23.20;99.90;;;;;;5062205;28;20483;-80
2023/07/06 10:03:38;;;;;;;5.73;1.53;;;23.00;99.90;;;;;;5059541;28;21002;-80
2023/07/06 10:06:23;;;;;;;5.33;1.83;;;22.80;99.90;;;;;;5059933;28;20448;-79
2023/07/06 10:08:56;;;;;;;7.67;1.50;;;22.90;99.90;;;;;;5060304;28;20458;-81
2023/07/06 10:11:29;;;;;;;4.40;1.57;;;23.30;99.90;;;;;;5069800;28;20445;-80
2023/07/06 10:14:04;;;;;;;4.43;1.60;;;23.50;99.90;;;;;;5080732;28;20862;-79
2023/07/06 10:16:42;;;;;;;6.30;2.57;;;23.60;99.90;;;;;;5078941;28;20488;-81
2023/07/06 10:19:25;;;;;;;5.73;1.93;;;24.00;99.90;;;;;;5078863;28;20838;-80
2023/07/06 10:22:04;;;;;;;4.57;1.53;;;24.10;99.90;;;;;;5081363;28;20434;-79
2023/07/06 10:24:37;;;;;;;3.80;2.07;;;24.10;99.90;;;;;;5099455;28;20449;-81
2023/07/06 10:27:07;;;;;;;4.40;1.50;;;24.00;99.90;;;;;;5091133;28;20959;-79
2023/07/06 10:29:41;;;;;;;3.70;1.90;;;24.40;99.90;;;;;;5059035;28;21040;-81
2023/07/06 10:32:11;;;;;;;3.57;1.90;;;24.70;99.90;;;;;;5059461;28;20870;-81
2023/07/06 10:34:44;;;;;;;3.97;1.63;;;24.90;99.90;;;;;;5059400;28;20701;-82
2023/07/06 10:37:15;;;;;;;5.63;1.53;;;25.30;99.90;;;;;;5065473;28;20454;-79
2023/07/06 10:40:04;;;;;;;5.20;2.13;;;25.30;99.90;;;;;;5079266;28;20471;-80
2023/07/06 10:42:32;;;;;;;5.00;1.67;;;25.50;99.90;;;;;;5078586;28;20482;-80
2023/07/06 10:45:03;;;;;;;4.47;1.40;;;25.50;99.90;;;;;;5075859;28;20447;-80
2023/07/06 10:47:38;;;;;;;4.73;1.90;;;25.10;99.90;;;;;;5077638;28;20849;-80
2023/07/06 10:50:25;;;;;;;3.83;2.30;;;25.10;99.90;;;;;;5078552;28;20466;-82
2023/07/06 10:53:05;;;;;;;5.43;1.63;;;25.30;99.90;;;;;;5078056;28;20461;-80
2023/07/06 10:55:36;;;;;;;4.60;2.00;;;25.30;99.90;;;;;;5078231;28;20422;-79
2023/07/06 10:58:25;;;;;;;3.53;1.50;;;25.30;99.90;;;;;;5064754;28;20442;-81
2023/07/06 11:00:55;;;;;;;4.17;1.60;;;24.80;99.90;;;;;;5078079;28;20479;-81
2023/07/06 11:03:27;;;;;;;4.13;1.47;;;24.80;99.90;;;;;;5074332;28;20458;-80
2023/07/06 11:05:57;;;;;;;3.90;1.57;;;25.00;99.90;;;;;;5065921;28;20947;-80
2023/07/06 11:09:04;;;;;;;5.90;1.60;;;24.90;99.90;;;;;;5071684;28;20450;-81
2023/07/06 11:11:34;;;;;;;6.10;1.50;;;24.50;99.90;;;;;;5077790;28;20501;-82
2023/07/06 11:14:19;;;;;;;3.70;1.50;;;24.30;99.90;;;;;;5060820;28;20479;-80
2023/07/06 11:16:55;;;;;;;3.60;1.50;;;24.10;99.90;;;;;;5073305;28;20455;-80
2023/07/06 11:19:28;;;;;;;4.57;2.10;;;24.20;99.90;;;;;;5073623;28;20471;-82
2023/07/06 11:22:01;;;;;;;3.60;1.53;;;24.80;99.90;;;;;;5057813;28;20455;-80
2023/07/06 11:24:33;;;;;;;3.03;1.73;;;25.30;99.90;;;;;;5074519;28;20458;-80
2023/07/06 11:27:05;;;;;;;3.23;1.13;;;25.70;99.90;;;;;;5061228;28;20489;-79
2023/07/06 11:29:33;;;;;;;4.43;1.40;;;25.90;99.90;;;;;;5057868;28;20473;-81
2023/07/06 11:32:14;;;;;;;3.57;1.30;;;25.90;99.90;;;;;;5070119;28;20459;-82
2023/07/06 11:34:50;;;;;;;3.10;1.40;;;26.20;99.90;;;;;;5067091;28;21044;-79
2023/07/06 11:37:32;;;;;;;2.87;1.73;;;26.40;99.90;;;;;;5073431;28;20542;-81
2023/07/06 11:40:08;;;;;;;3.80;1.50;;;26.20;99.90;;;;;;5072379;28;21008;-82
2023/07/06 11:42:50;;;;;;;4.17;1.70;;;26.00;99.90;;;;;;5072926;28;20466;-82
2023/07/06 11:45:24;;;;;;;4.47;1.40;;;25.70;99.90;;;;;;5070367;28;21274;-80
2023/07/06 11:48:04;;;;;;;3.13;1.47;;;25.50;99.90;;;;;;5052649;28;20446;-79
2023/07/06 11:50:37;;;;;;;3.40;1.47;;;25.70;99.90;;;;;;5061048;28;20486;-78
2023/07/06 11:53:17;;;;;;;2.97;1.10;;;25.80;99.90;;;;;;5054560;28;20455;-80
2023/07/06 11:56:04;;;;;;;2.90;1.20;;;25.70;99.90;;;;;;5057134;28;20473;-79
2023/07/06 11:58:43;;;;;;;2.90;1.13;;;26.10;99.90;;;;;;5073617;28;20454;-81
2023/07/06 12:01:21;;;;;;;3.33;1.47;;;26.20;99.90;;;;;;5104024;22;20496;-82
2023/07/06 12:03:57;;;;;;;3.33;1.40;;;25.80;99.90;;;;;;5075364;28;20474;-82
2023/07/06 12:06:24;;;;;;;6.40;1.80;;;25.50;99.90;;;;;;5076091;28;20494;-80
2023/07/06 12:08:51;;;;;;;3.27;1.20;;;25.20;99.90;;;;;;5077160;28;20998;-82
2023/07/06 12:11:22;;;;;;;3.37;1.40;;;24.90;99.90;;;;;;5075210;28;20534;-80
2023/07/06 12:13:52;;;;;;;3.63;1.40;;;24.70;99.90;;;;;;5076648;28;20486;-82
2023/07/06 12:16:21;;;;;;;4.70;1.80;;;24.50;99.90;;;;;;5076536;28;20440;-81
2023/07/06 12:18:56;;;;;;;4.63;1.80;;;24.20;99.90;;;;;;5076383;28;20457;-81
2023/07/06 12:21:26;;;;;;;4.23;1.40;;;24.10;99.90;;;;;;5075545;28;20519;-80
2023/07/06 12:23:55;;;;;;;4.70;1.43;;;24.50;99.90;;;;;;5076520;28;20519;-82
2023/07/06 12:26:21;;;;;;;4.47;1.50;;;25.20;99.90;;;;;;5076153;28;20487;-82
2023/07/06 12:28:49;;;;;;;2.60;1.40;;;25.70;99.90;;;;;;5074953;28;20542;-79
2023/07/06 12:31:17;;;;;;;3.30;1.70;;;25.60;99.90;;;;;;5074789;28;20477;-80
2023/07/06 12:33:44;;;;;;;4.50;1.80;;;25.20;99.90;;;;;;5074843;28;20462;-82
2023/07/06 12:36:13;;;;;;;3.13;1.23;;;24.80;99.90;;;;;;5075633;28;20466;-81
2023/07/06 12:38:40;;;;;;;3.30;1.20;;;24.60;99.90;;;;;;5074310;28;20458;-81
2023/07/06 12:41:14;;;;;;;2.53;1.30;;;24.20;99.90;;;;;;5075129;28;20482;-81
2023/07/06 12:43:42;;;;;;;3.80;1.73;;;24.00;99.90;;;;;;5075850;28;20451;-81
2023/07/06 12:46:09;;;;;;;4.60;1.50;;;24.30;99.90;;;;;;5076700;28;20451;-81
2023/07/06 12:48:44;;;;;;;4.30;1.73;;;25.10;99.90;;;;;;5076322;28;20454;-83
2023/07/06 12:51:19;;;;;;;5.17;1.57;;;26.00;99.90;;;;;;5079383;28;20493;-83
2023/07/06 12:53:47;;;;;;;2.57;1.30;;;26.60;99.90;;;;;;5079408;28;20841;-82
2023/07/06 12:56:20;;;;;;;4.83;1.40;;;26.90;99.90;;;;;;5082078;28;20455;-81
2023/07/06 12:58:53;;;;;;;2.23;1.10;;;27.40;99.90;;;;;;5082763;28;20439;-82
2023/07/06 13:01:21;;;;;;;2.87;1.50;;;27.80;99.90;;;;;;5082201;28;20578;-83
2023/07/06 13:03:52;;;;;;;4.63;1.20;;;28.10;99.90;;;;;;5082146;28;20486;-82